Flight Track Log - Related Links

Times and Time Zones

All times are in EDT time to prevent confusion due to time zone crossing. See the ASQ4209 flight status page for this flight to view local times or setup timezone preferences in your user account.

Time Position Orientation Groundspeed Altitude Reporting Facility
EDT Latitude Longitude Course Direction KTS MPH feet Rate Location/Type
Fri 01:21:30 PM 29.9614 -95.3411 90° East 164 189 800  Level Houston Center
Fri 01:22:01 PM 29.9428 -95.3194 135° Southeast 180 207 2,100 1,920 Climbing Houston Center
Fri 01:23:10 PM 29.8956 -95.2564 131° Southeast 218 251 4,000 1,574 Climbing Houston Center
Fri 01:24:00 PM 29.9834 -94.9882 90° East  Level FlightAware Approximate
Fri 01:24:03 PM 29.8575 -95.1922 124° Southeast 265 305 5,300  Level Houston Center
Fri 01:25:00 PM 29.9834 -94.8732 90° East  Level FlightAware Approximate
Fri 01:25:04 PM 29.8344 -95.1036 107° East 293 337 7,700  Level Houston Center
Fri 01:26:00 PM 29.9834 -94.7581 90° East  Level FlightAware Approximate
Fri 01:26:17 PM 29.8347 -95.0019 90° East 296 341 10,500  Level Houston Center
Fri 01:27:18 PM 29.8589 -94.9014 74° East 321 369 11,800 1,366 Climbing Houston Center
Fri 01:28:20 PM 29.8858 -94.7881 75° East 355 409 13,300 1,548 Climbing Houston Center
Fri 01:29:22 PM 29.9131 -94.6708 75° East 374 430 15,000 1,790 Climbing Houston Center
Fri 01:30:24 PM 29.9461 -94.5294 75° East 380 437 17,000 1,742 Climbing Houston Center
Fri 01:31:26 PM 29.9706 -94.4133 76° East 383 441 18,600 1,597 Climbing Houston Center
Fri 01:32:28 PM 29.9975 -94.2931 75° East 387 445 20,300 1,645 Climbing Houston Center
Fri 01:33:30 PM 30.0142 -94.1669 81° East 395 455 22,000 1,306 Climbing Houston Center
Fri 01:34:32 PM 30.0294 -94.0386 82° East 402 463 23,000 484 Climbing Houston Center
Fri 01:35:34 PM 30.0497 -93.8722 82° East 428 493 23,000  Level Houston Center
Fri 01:36:36 PM 30.0667 -93.7286 82° East 449 517 23,000  Level Houston Center
Fri 01:37:38 PM 30.0839 -93.5861 82° East 454 522 23,000  Level Houston Center
Fri 01:38:40 PM 30.1008 -93.4431 82° East 458 527 23,000  Level Houston Center
Fri 01:39:42 PM 30.1167 -93.2997 83° East 456 525 23,000  Level Houston Center
Fri 01:40:44 PM 30.1389 -93.1281 81° East 457 526 23,000  Level Houston Center
Fri 01:41:46 PM 30.1636 -92.9858 79° East 454 522 23,000  Level Houston Center
Fri 01:42:48 PM 30.1928 -92.8467 76° East 450 518 23,000  Level Houston Center
Fri 01:43:50 PM 30.2197 -92.7067 77° East 450 518 23,000  Level Houston Center
Fri 01:44:52 PM 30.2469 -92.5692 77° East 444 511 23,000  Level Houston Center
Fri 01:45:54 PM 30.2778 -92.4067 78° East 436 502 23,000  Level Houston Center
Fri 01:46:56 PM 30.3017 -92.2692 79° East 440 506 23,000  Level Houston Center
Fri 01:47:58 PM 30.3297 -92.1286 77° East 449 517 23,000 -532 Level Houston Center
Fri 01:49:00 PM 30.3567 -91.9903 77° East 445 512 21,900 -1,500 Descending Houston Center
Fri 01:50:02 PM 30.3794 -91.8664 78° East 400 460 19,900 -2,129 Descending Houston Center
Fri 01:51:04 PM 30.4064 -91.7222 78° East 384 442 17,500 -2,177 Descending Houston Center
Fri 01:52:06 PM 30.4294 -91.6039 77° East 384 442 15,400 -2,177 Descending Houston Center
Fri 01:53:08 PM 30.4239 -91.4886 93° East 358 412 13,000 -2,419 Descending Houston Center
Fri 01:54:10 PM 30.4206 -91.3844 92° East 331 381 10,400 -2,516 Descending Houston Center
Fri 01:55:12 PM 30.4153 -91.2844 93° East 316 364 7,800 -2,592 Descending Houston Center
Fri 01:56:15 PM 30.4106 -91.1739 93° East 297 342 5,000 -2,448 Descending Houston Center
Fri 01:57:17 PM 30.4250 -91.0936 78° East 274 315 2,700 -2,226 Descending Houston Center

Login

Don't have an account? Register now (free) for customized features, flight alerts, and more!